»·PEaware :: JBU228 MYNN-KMCO

JBU228 :: MYNN-KMCO

FLIGHT INFORMATION

Flight Status: Arrived
Operator:
JetBlue Airways
More flights by this operator :: More flights under this callsign
Pilot: Drew L. (13237)
Aircraft: AIRBUS A320
(A320)
More flights by this aircraft type
Origin: MYNN Nassau Intl
Bahamas
Destination: KMCO Orlando Intl
United States
More flights between these airports :: More routes between these airports
Route: ZQA BR65V ZFP BR62V TRV BAIRN4
File this flight plan on PilotEdge
Remarks: PBN / A1B1C1D1O1S1 DOF / 180211 REG / N320SB EET / KZJX0051 KZMA0059 OPR / JBU PER / C RMK / TCAS SIMBRIEF
Altitude:
(Current/Filed)
26,000ft
Speed:
(Current/Filed)
383kts
Departed: 11-Feb-18 09:39 AM
Arrived: 11-Feb-18 10:36 AM
Distance/Time
Traveled:
290nm/0:56
Distance/Time
To Go:
Arrived

Flight Plot

Page will automatically refresh every two minutes.

Flight plan parsing failed; only flown route is shown


Map Options




Map Legend


Flown Route
Filed Route
Departure Airport
Arrival Airport
Navaid (VOR, NDB)
Fix

Horizontal Profiles

Position Reports

Time Latitude Longitude Heading Altitude Ground
Speed
11-Feb-18 09:28 25.046164 -77.463979 356 25ft 0kts
11-Feb-18 09:29 25.046164 -77.463979 356 25ft 0kts
11-Feb-18 09:30 25.046164 -77.463979 356 25ft 0kts
11-Feb-18 09:31 25.046164 -77.463979 356 25ft 0kts
11-Feb-18 09:32 25.046164 -77.463979 356 25ft 0kts
11-Feb-18 09:33 25.046164 -77.463979 356 25ft 0kts
11-Feb-18 09:34 25.046164 -77.463979 356 25ft 0kts
11-Feb-18 09:35 25.046164 -77.463979 356 25ft 0kts
11-Feb-18 09:36 25.046164 -77.463979 356 25ft 0kts
11-Feb-18 09:37 25.046164 -77.463979 356 25ft 0kts
11-Feb-18 09:38 25.046164 -77.463979 356 25ft 0kts
11-Feb-18 09:39 25.046164 -77.463979 356 25ft 0kts
11-Feb-18 09:40 25.045718 -77.463910 335 25ft 2kts
11-Feb-18 09:41 25.045516 -77.463738 310 25ft 0kts
11-Feb-18 09:42 25.045519 -77.463741 310 25ft 0kts
11-Feb-18 09:43 25.046226 -77.466845 315 25ft 14kts
11-Feb-18 09:43 25.048821 -77.469724 314 25ft 17kts
11-Feb-18 09:44 25.052222 -77.474155 260 25ft 21kts
11-Feb-18 09:46 25.036151 -77.458756 134 610ft 183kts
11-Feb-18 09:46 25.015781 -77.419990 90 3932ft 193kts
11-Feb-18 09:47 25.057516 -77.376958 355 6461ft 283kts
11-Feb-18 09:48 25.106318 -77.443747 292 9890ft 306kts
11-Feb-18 09:50 25.154797 -77.550027 316 12295ft 376kts
11-Feb-18 09:50 25.226296 -77.608533 322 14539ft 390kts
11-Feb-18 09:51 25.314468 -77.679682 321 17050ft 400kts
11-Feb-18 09:52 25.405179 -77.753182 321 19315ft 409kts
11-Feb-18 09:53 25.497487 -77.828133 321 21352ft 418kts
11-Feb-18 09:54 25.591711 -77.904794 321 23192ft 425kts
11-Feb-18 09:55 25.687520 -77.982910 321 24853ft 432kts
11-Feb-18 09:56 25.784955 -78.062513 321 26274ft 436kts
11-Feb-18 09:57 25.883961 -78.143590 321 26330ft 451kts
11-Feb-18 09:58 25.984528 -78.226081 321 26330ft 451kts
11-Feb-18 09:59 26.085099 -78.308771 321 26330ft 451kts
11-Feb-18 10:00 26.185590 -78.391580 321 26329ft 451kts
11-Feb-18 10:02 26.286192 -78.474661 321 26329ft 451kts
11-Feb-18 10:03 26.386762 -78.557900 321 26329ft 451kts
11-Feb-18 10:04 26.487208 -78.641221 321 26330ft 451kts
11-Feb-18 10:05 26.560446 -78.707837 309 26336ft 449kts
11-Feb-18 10:06 26.633430 -78.820201 303 26345ft 447kts
11-Feb-18 10:07 26.691887 -78.911929 303 26328ft 446kts
11-Feb-18 10:08 26.763610 -79.024766 303 26312ft 446kts
11-Feb-18 10:09 26.835617 -79.138382 303 26305ft 448kts
11-Feb-18 10:10 26.907578 -79.252336 303 26320ft 451kts
11-Feb-18 10:11 26.979933 -79.367136 302 26349ft 450kts
11-Feb-18 10:12 27.051712 -79.481172 302 26329ft 447kts
11-Feb-18 10:13 27.122988 -79.594716 302 26172ft 445kts
11-Feb-18 10:14 27.183842 -79.691893 301 26048ft 444kts
11-Feb-18 10:15 27.249578 -79.797105 301 26029ft 444kts
11-Feb-18 10:16 27.320100 -79.910243 301 26037ft 444kts
11-Feb-18 10:17 27.390075 -80.022780 301 26058ft 444kts
11-Feb-18 10:18 27.460494 -80.136327 301 26166ft 445kts
11-Feb-18 10:19 27.530275 -80.249107 301 25954ft 424kts
11-Feb-18 10:20 27.593808 -80.352028 301 25092ft 388kts
11-Feb-18 10:21 27.653705 -80.449402 301 23474ft 374kts
11-Feb-18 10:22 27.703965 -80.548546 292 21599ft 359kts
11-Feb-18 10:23 27.746826 -80.647497 292 19769ft 348kts
11-Feb-18 10:24 27.787729 -80.742169 292 18006ft 339kts
11-Feb-18 10:25 27.822814 -80.823562 292 16453ft 333kts
11-Feb-18 10:26 27.861103 -80.912564 292 14822ft 325kts
11-Feb-18 10:27 27.899438 -81.001881 292 13144ft 318kts
11-Feb-18 10:28 27.937240 -81.090057 293 11487ft 312kts
11-Feb-18 10:29 28.010369 -81.136199 341 10368ft 321kts
11-Feb-18 10:30 28.089506 -81.162416 341 9739ft 301kts
11-Feb-18 10:31 28.169601 -81.187369 355 9000ft 303kts
11-Feb-18 10:32 28.253571 -81.187504 359 8248ft 302kts
11-Feb-18 10:33 28.337330 -81.187501 359 7501ft 300kts
11-Feb-18 10:34 28.420147 -81.187511 359 6761ft 299kts
11-Feb-18 10:35 28.502467 -81.187518 359 6028ft 297kts
11-Feb-18 10:36 28.584114 -81.187499 359 5286ft 293kts
11-Feb-18 10:37 28.630187 -81.243372 261 4464ft 260kts
11-Feb-18 10:38 28.622427 -81.321213 259 3724ft 238kts
11-Feb-18 10:39 28.581221 -81.353061 157 2868ft 215kts
11-Feb-18 10:40 28.529480 -81.328894 175 2064ft 183kts
11-Feb-18 10:41 28.481177 -81.327300 179 1544ft 155kts
11-Feb-18 10:42 28.442311 -81.326914 179 112ft 116kts
11-Feb-18 10:43 28.432734 -81.326788 178 105ft 0kts
11-Feb-18 10:44 28.432734 -81.326788 178 105ft 0kts
11-Feb-18 10:45 28.432734 -81.326788 178 105ft 0kts

Navigation Log

Ident Type
Flight plan parsing failed, navigation log unavailable